Time;durP1;ratioP1;P1;durP2;ratioP2;P2;SDS_P1;SDS_P2;PMS_P1;PMS_P2;Temp;Humidity;BMP_temperature;BMP_pressure;BME280_temperature;BME280_humidity;BME280_pressure;Samples;Min_cycle;Max_cycle;Signal;HPM_P1;HPM_P2
2023/05/04 00:00:09;;;;;;;39.80;22.80;;;8.00;66.10;;;;;;5078379;28;46499;-65
2023/05/04 00:02:35;;;;;;;36.70;22.50;;;8.00;66.40;;;;;;5077892;28;46782;-65
2023/05/04 00:05:01;;;;;;;44.07;25.60;;;7.90;66.40;;;;;;5077994;28;46583;-64
2023/05/04 00:07:27;;;;;;;45.17;25.10;;;8.00;66.40;;;;;;5078076;28;46376;-64
2023/05/04 00:09:52;;;;;;;37.53;24.37;;;8.00;66.50;;;;;;5079428;28;46424;-65
2023/05/04 00:12:18;;;;;;;35.90;22.57;;;8.00;66.60;;;;;;5075680;28;46372;-64
2023/05/04 00:14:43;;;;;;;36.20;22.43;;;7.90;66.70;;;;;;5080803;28;46487;-65
2023/05/04 00:17:09;;;;;;;32.47;20.70;;;7.90;66.60;;;;;;5077453;28;46117;-65
2023/05/04 00:19:38;;;;;;;21.53;13.83;;;7.80;66.50;;;;;;5081191;28;46372;-65
2023/05/04 00:22:03;;;;;;;19.30;12.83;;;7.70;66.90;;;;;;5076249;28;46405;-65
2023/05/04 00:24:29;;;;;;;23.73;12.37;;;7.50;67.10;;;;;;5078769;28;46497;-64
2023/05/04 00:26:54;;;;;;;16.73;10.97;;;7.30;67.30;;;;;;5079616;28;47018;-64
2023/05/04 00:29:20;;;;;;;15.97;10.50;;;7.30;67.50;;;;;;5078922;28;46290;-65
2023/05/04 00:31:46;;;;;;;15.03;10.33;;;7.10;67.50;;;;;;5075979;28;46371;-65
2023/05/04 00:34:12;;;;;;;17.80;10.90;;;7.00;67.70;;;;;;5077433;28;46445;-65
2023/05/04 00:36:37;;;;;;;15.47;10.80;;;6.90;67.70;;;;;;5077356;28;46386;-64
2023/05/04 00:39:03;;;;;;;17.47;10.93;;;6.80;67.70;;;;;;5079648;28;46423;-64
2023/05/04 00:41:28;;;;;;;18.63;10.70;;;6.80;67.80;;;;;;5079805;28;46381;-64
2023/05/04 00:43:54;;;;;;;15.37;10.63;;;6.70;67.80;;;;;;5080805;28;46412;-65
2023/05/04 00:46:19;;;;;;;17.33;11.57;;;6.70;67.90;;;;;;5079552;28;47856;-64
2023/05/04 00:48:47;;;;;;;15.67;11.30;;;6.60;67.70;;;;;;5081250;28;46426;-65
2023/05/04 00:51:15;;;;;;;22.13;12.70;;;6.60;67.60;;;;;;5079340;28;46454;-64
2023/05/04 00:53:41;;;;;;;18.53;11.00;;;6.60;67.60;;;;;;5077620;28;46478;-64
2023/05/04 00:56:07;;;;;;;17.20;12.37;;;6.60;67.50;;;;;;5077178;28;46075;-65
2023/05/04 00:58:33;;;;;;;14.50;10.87;;;6.60;67.50;;;;;;5079106;28;45856;-65
2023/05/04 01:01:01;;;;;;;21.17;14.23;;;6.60;67.40;;;;;;5077175;28;46365;-65
2023/05/04 01:03:27;;;;;;;26.43;16.40;;;6.60;68.60;;;;;;5082699;28;46326;-65
2023/05/04 01:06:21;;;;;;;30.83;17.20;;;6.60;67.20;;;;;;5081269;28;46362;-64
2023/05/04 01:09:03;;;;;;;29.67;17.30;;;6.70;67.10;;;;;;5078901;28;46435;-64
2023/05/04 01:11:36;;;;;;;30.67;18.07;;;6.70;67.20;;;;;;5077600;28;46431;-64
2023/05/04 01:14:02;;;;;;;58.60;29.10;;;6.70;67.10;;;;;;5078430;28;46368;-65
2023/05/04 01:16:28;;;;;;;34.23;18.80;;;6.60;67.00;;;;;;5078771;28;46527;-64
2023/05/04 01:18:53;;;;;;;34.00;18.90;;;6.60;67.10;;;;;;5075246;28;46393;-65
2023/05/04 01:21:19;;;;;;;35.60;20.87;;;6.60;67.30;;;;;;5079773;28;46357;-64
2023/05/04 01:23:45;;;;;;;35.10;20.20;;;6.60;67.50;;;;;;5077013;28;46318;-64
2023/05/04 01:26:24;;;;;;;38.10;19.83;;;6.60;67.60;;;;;;5077369;28;46373;-64
2023/05/04 01:29:03;;;;;;;48.67;26.40;;;6.60;67.50;;;;;;5071726;28;46435;-65
2023/05/04 01:31:30;;;;;;;62.43;30.37;;;6.70;67.50;;;;;;5078488;28;46380;-65
2023/05/04 01:33:56;;;;;;;60.27;26.70;;;6.80;67.50;;;;;;5077769;28;46298;-65
2023/05/04 01:36:22;;;;;;;44.20;24.10;;;6.80;67.50;;;;;;5079035;28;46380;-65
2023/05/04 01:38:48;;;;;;;47.90;25.30;;;6.70;67.70;;;;;;5078409;28;46456;-65
2023/05/04 01:41:14;;;;;;;59.70;29.10;;;6.70;67.80;;;;;;5078420;28;46403;-64
2023/05/04 01:43:40;;;;;;;56.63;25.70;;;6.70;67.90;;;;;;5079688;28;46459;-65
2023/05/04 01:46:06;;;;;;;67.57;30.80;;;6.70;67.90;;;;;;5078459;27;46515;-64
2023/05/04 01:48:32;;;;;;;86.03;35.23;;;6.80;67.80;;;;;;5078592;28;46383;-64
2023/05/04 01:50:57;;;;;;;83.03;36.00;;;6.80;67.90;;;;;;5082078;28;46366;-65
2023/05/04 01:53:23;;;;;;;67.60;30.50;;;6.80;68.00;;;;;;5080354;28;46624;-65
2023/05/04 01:55:48;;;;;;;84.53;35.27;;;6.80;68.20;;;;;;5082980;28;46776;-65
2023/05/04 01:58:14;;;;;;;77.47;34.57;;;6.80;68.40;;;;;;5081010;28;46284;-65
2023/05/04 02:00:39;;;;;;;88.97;38.77;;;6.80;68.50;;;;;;5080443;28;46296;-64
2023/05/04 02:03:05;;;;;;;77.60;34.77;;;6.90;68.50;;;;;;5077050;28;46364;-64
2023/05/04 02:05:31;;;;;;;80.60;34.97;;;6.90;68.70;;;;;;5080188;28;46396;-65
2023/05/04 02:07:56;;;;;;;95.70;36.27;;;6.90;68.80;;;;;;5081876;28;46489;-63
2023/05/04 02:10:22;;;;;;;74.60;35.27;;;6.80;68.90;;;;;;5079528;28;46471;-65
2023/05/04 02:12:47;;;;;;;86.00;35.67;;;6.90;69.10;;;;;;5077938;28;46661;-64
2023/05/04 02:15:13;;;;;;;81.97;36.53;;;6.80;69.40;;;;;;5080135;28;46459;-65
2023/05/04 02:17:39;;;;;;;94.40;38.90;;;6.90;69.80;;;;;;5081206;28;46482;-65
2023/05/04 02:20:05;;;;;;;80.97;34.87;;;6.80;69.90;;;;;;5077836;28;45780;-65
2023/05/04 02:22:31;;;;;;;95.90;39.50;;;6.80;70.00;;;;;;5080946;28;46092;-65
2023/05/04 02:24:56;;;;;;;108.67;39.93;;;6.80;70.30;;;;;;5082707;28;46451;-65
2023/05/04 02:27:22;;;;;;;96.60;38.77;;;6.80;70.40;;;;;;5078911;28;46308;-64
2023/05/04 02:29:48;;;;;;;111.57;41.80;;;6.80;70.50;;;;;;5080207;28;46360;-65
2023/05/04 02:32:13;;;;;;;108.63;41.60;;;6.90;70.80;;;;;;5079199;28;46364;-64
2023/05/04 02:34:39;;;;;;;116.30;44.40;;;6.90;70.70;;;;;;5082118;28;47174;-66
2023/05/04 02:37:04;;;;;;;122.50;44.90;;;7.00;70.80;;;;;;5080476;28;46448;-64
2023/05/04 02:39:30;;;;;;;109.03;43.43;;;7.00;70.90;;;;;;5081972;28;46378;-65
2023/05/04 02:41:55;;;;;;;115.33;44.90;;;7.10;71.10;;;;;;5080897;28;46364;-65
2023/05/04 02:44:21;;;;;;;119.10;44.50;;;7.10;71.40;;;;;;5080919;28;46368;-65
2023/05/04 02:46:47;;;;;;;122.93;46.97;;;7.10;71.50;;;;;;5079973;28;46346;-65
2023/05/04 02:49:12;;;;;;;121.43;44.67;;;7.10;71.80;;;;;;5081965;28;46435;-64
2023/05/04 02:51:38;;;;;;;128.60;47.23;;;7.10;71.90;;;;;;5080077;28;46032;-64
2023/05/04 02:54:03;;;;;;;118.30;46.57;;;7.10;72.20;;;;;;5081772;28;45903;-64
2023/05/04 02:56:29;;;;;;;121.80;45.93;;;7.10;72.30;;;;;;5077857;27;46152;-65
2023/05/04 02:58:54;;;;;;;113.70;47.37;;;7.10;72.50;;;;;;5080291;28;46453;-64
2023/05/04 03:01:20;;;;;;;120.47;45.07;;;7.10;72.60;;;;;;5079905;28;46443;-61
2023/05/04 03:03:46;;;;;;;130.60;45.27;;;7.10;72.90;;;;;;5081579;28;47321;-66
2023/05/04 03:06:11;;;;;;;114.60;43.77;;;7.10;72.90;;;;;;5079670;28;46411;-64
2023/05/04 03:08:37;;;;;;;119.43;45.70;;;7.10;73.00;;;;;;5081484;28;46499;-64
2023/05/04 03:11:03;;;;;;;107.07;43.80;;;7.10;73.10;;;;;;5079567;28;45934;-65
2023/05/04 03:13:28;;;;;;;120.70;43.40;;;7.00;73.20;;;;;;5080402;28;46348;-65
2023/05/04 03:15:54;;;;;;;108.63;42.57;;;7.00;73.40;;;;;;5080538;28;46360;-65
2023/05/04 03:18:19;;;;;;;110.57;45.57;;;7.00;74.60;;;;;;5078902;28;46401;-65
2023/05/04 03:20:45;;;;;;;120.37;46.00;;;7.00;73.50;;;;;;5079786;28;46430;-66
2023/05/04 03:23:11;;;;;;;110.40;42.20;;;7.00;73.70;;;;;;5080408;28;47079;-65
2023/05/04 03:25:36;;;;;;;113.83;44.77;;;7.00;73.80;;;;;;5080417;28;46457;-64
2023/05/04 03:28:02;;;;;;;111.73;43.37;;;7.00;73.80;;;;;;5080999;28;46453;-64
2023/05/04 03:30:27;;;;;;;117.63;45.50;;;7.00;74.10;;;;;;5080600;28;46544;-64
2023/05/04 03:32:53;;;;;;;112.03;46.63;;;7.00;74.00;;;;;;5078555;28;48150;-63
2023/05/04 03:35:19;;;;;;;115.37;46.50;;;7.00;74.30;;;;;;5079700;28;46435;-63
2023/05/04 03:37:44;;;;;;;108.93;45.23;;;6.90;74.10;;;;;;5079422;28;46514;-64
2023/05/04 03:40:10;;;;;;;112.00;45.73;;;6.90;74.40;;;;;;5079931;28;46432;-63
2023/05/04 03:42:37;;;;;;;107.57;44.20;;;6.90;74.40;;;;;;5076193;28;47020;-65
2023/05/04 03:45:03;;;;;;;118.17;46.23;;;6.90;74.40;;;;;;5080534;28;46410;-63
2023/05/04 03:47:28;;;;;;;104.90;43.67;;;6.90;74.40;;;;;;5079329;28;45789;-65
2023/05/04 03:49:54;;;;;;;104.27;44.97;;;6.90;74.50;;;;;;5080053;28;46746;-64
2023/05/04 03:52:19;;;;;;;120.83;46.17;;;6.90;74.60;;;;;;5077576;28;46537;-65
2023/05/04 03:54:45;;;;;;;114.00;46.50;;;6.90;74.60;;;;;;5080628;28;45878;-64
2023/05/04 03:57:10;;;;;;;111.63;46.10;;;6.90;74.60;;;;;;5079890;28;45749;-64
2023/05/04 03:59:36;;;;;;;113.07;45.10;;;6.90;74.60;;;;;;5081268;28;46336;-64
2023/05/04 04:02:02;;;;;;;110.13;46.17;;;7.00;74.50;;;;;;5076546;28;46390;-65
2023/05/04 04:04:27;;;;;;;113.60;46.20;;;7.00;74.30;;;;;;5078620;28;46477;-65
2023/05/04 04:06:53;;;;;;;105.00;42.97;;;7.00;74.10;;;;;;5080385;28;46407;-65
2023/05/04 04:09:18;;;;;;;92.63;42.07;;;7.00;74.00;;;;;;5077220;27;46093;-65
2023/05/04 04:11:44;;;;;;;100.40;41.70;;;7.00;73.90;;;;;;5079309;28;46369;-65
2023/05/04 04:14:10;;;;;;;85.90;37.67;;;7.10;73.90;;;;;;5080900;28;45790;-64
2023/05/04 04:16:35;;;;;;;73.10;36.37;;;7.10;73.70;;;;;;5080894;28;46386;-65
2023/05/04 04:19:01;;;;;;;62.77;34.80;;;7.20;73.50;;;;;;5080905;28;46381;-64
2023/05/04 04:21:27;;;;;;;59.40;32.13;;;7.30;73.40;;;;;;5079978;28;47135;-64
2023/05/04 04:23:53;;;;;;;61.73;30.10;;;7.30;73.10;;;;;;5081183;28;46359;-65
2023/05/04 04:26:20;;;;;;;65.97;34.73;;;7.40;73.00;;;;;;5076461;28;46641;-64
2023/05/04 04:28:49;;;;;;;65.90;35.90;;;7.40;72.90;;;;;;5080830;28;46609;-65
2023/05/04 04:31:19;;;;;;;63.67;34.60;;;7.60;72.90;;;;;;5077870;28;46510;-65
2023/05/04 04:33:46;;;;;;;58.60;33.73;;;7.70;72.40;;;;;;5079348;28;46363;-64
2023/05/04 04:36:15;;;;;;;64.70;33.57;;;7.80;72.40;;;;;;5077979;28;46371;-64
2023/05/04 04:38:41;;;;;;;57.90;33.10;;;7.90;72.40;;;;;;5079744;28;46402;-64
2023/05/04 04:41:06;;;;;;;63.10;35.80;;;7.90;72.50;;;;;;5078002;28;46465;-65
2023/05/04 04:43:32;;;;;;;74.30;34.53;;;8.00;72.80;;;;;;5079900;28;46421;-64
2023/05/04 04:45:58;;;;;;;58.60;31.77;;;8.00;72.80;;;;;;5077846;28;46273;-65
2023/05/04 04:48:24;;;;;;;70.47;31.90;;;8.10;72.70;;;;;;5079810;28;46393;-64
2023/05/04 04:50:50;;;;;;;105.20;32.30;;;8.20;72.20;;;;;;5077523;28;46583;-65
2023/05/04 04:53:16;;;;;;;83.23;31.50;;;8.30;72.20;;;;;;5075837;28;46823;-64
2023/05/04 04:55:42;;;;;;;56.27;29.37;;;8.20;72.30;;;;;;5077447;28;46468;-65
2023/05/04 04:58:08;;;;;;;70.73;28.10;;;8.20;72.40;;;;;;5077894;28;46385;-64
2023/05/04 05:00:34;;;;;;;61.37;29.87;;;8.20;72.50;;;;;;5078948;28;46609;-65
2023/05/04 05:03:00;;;;;;;51.30;28.63;;;8.30;72.70;;;;;;5075810;28;46452;-65
2023/05/04 05:05:26;;;;;;;43.00;28.27;;;8.50;72.70;;;;;;5078219;28;46453;-65
2023/05/04 05:07:51;;;;;;;34.00;23.97;;;9.00;72.50;;;;;;5079825;28;46519;-65
2023/05/04 05:10:19;;;;;;;33.53;22.57;;;9.60;72.10;;;;;;5079065;28;47341;-65
2023/05/04 05:12:45;;;;;;;30.93;21.33;;;10.00;71.00;;;;;;5080312;28;46587;-65
2023/05/04 05:15:11;;;;;;;29.00;20.93;;;10.40;70.70;;;;;;5076399;28;46444;-64
2023/05/04 05:17:37;;;;;;;27.77;19.47;;;10.80;70.40;;;;;;5081077;28;46525;-65
2023/05/04 05:20:09;;;;;;;28.67;18.83;;;11.20;69.50;;;;;;5076200;28;46459;-65
2023/05/04 05:22:36;;;;;;;27.87;18.70;;;11.30;68.70;;;;;;5076951;28;46432;-65
2023/05/04 05:25:01;;;;;;;26.67;18.57;;;11.60;68.00;;;;;;5079113;28;46437;-65
2023/05/04 05:27:28;;;;;;;27.17;18.30;;;11.90;67.10;;;;;;5076612;28;45914;-64
2023/05/04 05:29:53;;;;;;;23.13;17.60;;;12.20;66.50;;;;;;5078937;28;47419;-64
2023/05/04 05:32:19;;;;;;;21.33;16.47;;;12.70;65.40;;;;;;5077102;28;46535;-65
2023/05/04 05:34:44;;;;;;;23.90;17.20;;;13.30;63.30;;;;;;5076885;28;46458;-65
2023/05/04 05:37:10;;;;;;;23.00;14.93;;;13.80;61.80;;;;;;5075989;28;46775;-64
2023/05/04 05:39:36;;;;;;;22.70;16.30;;;14.10;58.60;;;;;;5076608;28;46001;-66
2023/05/04 05:42:02;;;;;;;25.47;15.60;;;14.30;58.30;;;;;;5068449;27;46395;-63
2023/05/04 05:44:28;;;;;;;21.20;14.90;;;14.80;56.10;;;;;;5075391;28;46587;-64
2023/05/04 05:46:54;;;;;;;17.30;13.33;;;15.30;54.80;;;;;;5078961;28;46426;-64
2023/05/04 05:49:20;;;;;;;19.53;14.80;;;15.50;53.20;;;;;;5076663;28;46345;-64
2023/05/04 05:51:46;;;;;;;20.43;15.60;;;15.70;52.70;;;;;;5078125;28;46337;-65
2023/05/04 05:54:12;;;;;;;19.43;13.90;;;16.20;50.00;;;;;;5074513;28;46639;-66
2023/05/04 05:56:38;;;;;;;20.60;13.70;;;16.80;48.00;;;;;;5076082;28;46506;-65
2023/05/04 05:59:04;;;;;;;18.43;12.70;;;17.40;46.00;;;;;;5077589;28;46005;-66
2023/05/04 06:01:29;;;;;;;15.63;11.33;;;18.00;45.70;;;;;;5073427;28;46583;-65
2023/05/04 06:03:55;;;;;;;21.07;12.87;;;17.90;43.50;;;;;;5078123;27;46839;-67
2023/05/04 06:06:20;;;;;;;16.43;12.30;;;18.10;42.70;;;;;;5075682;28;46307;-66
2023/05/04 06:08:46;;;;;;;16.50;12.17;;;17.90;39.20;;;;;;5078229;28;46522;-68
2023/05/04 06:11:12;;;;;;;18.27;13.00;;;17.80;38.90;;;;;;5076462;28;46516;-68
2023/05/04 06:13:38;;;;;;;15.33;12.00;;;17.60;39.50;;;;;;5076372;28;45839;-68
2023/05/04 06:16:04;;;;;;;17.03;12.70;;;17.80;39.40;;;;;;5078789;28;46512;-69
2023/05/04 06:18:29;;;;;;;17.33;12.63;;;17.80;39.60;;;;;;5075666;28;47004;-66
2023/05/04 06:20:59;;;;;;;18.17;12.47;;;17.90;38.90;;;;;;5074572;28;46360;-68
2023/05/04 06:23:25;;;;;;;16.87;12.00;;;17.50;38.30;;;;;;5077522;28;46506;-67
2023/05/04 06:25:51;;;;;;;15.90;12.37;;;16.60;42.20;;;;;;5073860;28;46761;-67
2023/05/04 06:28:17;;;;;;;17.40;11.93;;;16.00;43.90;;;;;;5076264;28;47107;-67
2023/05/04 06:30:43;;;;;;;15.20;12.03;;;15.70;46.10;;;;;;5074720;28;45889;-68
2023/05/04 06:33:09;;;;;;;18.67;12.83;;;15.90;45.80;;;;;;5079878;28;46455;-67
2023/05/04 06:35:35;;;;;;;27.03;14.03;;;17.20;40.40;;;;;;5077432;28;46430;-67
2023/05/04 06:38:00;;;;;;;21.23;14.20;;;18.30;35.10;;;;;;5079630;28;46423;-66
2023/05/04 06:40:26;;;;;;;17.10;13.33;;;19.00;31.00;;;;;;5079407;28;46377;-67
2023/05/04 06:42:51;;;;;;;19.70;13.00;;;19.40;29.70;;;;;;5081468;28;45952;-66
2023/05/04 06:45:17;;;;;;;15.10;11.80;;;19.10;29.90;;;;;;5079932;28;46487;-65
2023/05/04 06:47:43;;;;;;;16.63;11.27;;;19.20;29.00;;;;;;5081088;28;46415;-67
2023/05/04 06:50:10;;;;;;;15.97;11.73;;;19.70;27.80;;;;;;5079742;28;46310;-67
2023/05/04 06:52:41;;;;;;;16.17;11.40;;;19.80;27.50;;;;;;5078251;28;46462;-67
2023/05/04 06:55:07;;;;;;;15.47;11.83;;;19.40;28.10;;;;;;5079544;28;46380;-69
2023/05/04 06:57:33;;;;;;;14.97;11.80;;;19.40;27.20;;;;;;5078750;27;46532;-67
2023/05/04 06:59:58;;;;;;;16.93;11.63;;;18.10;29.60;;;;;;5081027;28;46526;-69
2023/05/04 07:02:24;;;;;;;19.83;12.37;;;16.70;33.50;;;;;;5079953;28;46431;-69
2023/05/04 07:04:51;;;;;;;17.30;10.87;;;15.90;36.60;;;;;;5079285;28;46650;-69
2023/05/04 07:07:17;;;;;;;16.83;10.53;;;15.30;38.90;;;;;;5079478;27;46694;-69
2023/05/04 07:09:43;;;;;;;20.33;10.90;;;14.80;40.60;;;;;;5075717;28;46446;-67
2023/05/04 07:12:08;;;;;;;15.17;11.27;;;14.70;41.20;;;;;;5078054;28;46454;-67
2023/05/04 07:14:34;;;;;;;15.37;11.03;;;14.70;41.90;;;;;;5066089;28;46595;-68
2023/05/04 07:17:00;;;;;;;16.27;10.33;;;14.60;42.70;;;;;;5079174;28;46483;-68
2023/05/04 07:19:26;;;;;;;15.60;12.07;;;14.40;42.40;;;;;;5080876;28;46398;-67
2023/05/04 07:21:52;;;;;;;14.63;11.13;;;14.50;42.60;;;;;;5078142;28;46460;-68
2023/05/04 07:24:17;;;;;;;16.43;11.90;;;14.50;42.60;;;;;;5080581;28;46460;-69
2023/05/04 07:26:43;;;;;;;16.23;12.70;;;14.50;42.90;;;;;;5078257;28;46063;-69
2023/05/04 07:29:08;;;;;;;20.00;10.50;;;14.40;43.40;;;;;;5080530;28;45846;-69
2023/05/04 07:31:35;;;;;;;16.73;11.70;;;14.20;44.50;;;;;;5080259;28;46451;-68
2023/05/04 07:34:00;;;;;;;17.13;12.37;;;14.30;44.90;;;;;;5079702;28;46743;-68
2023/05/04 07:36:26;;;;;;;16.43;11.97;;;14.30;45.00;;;;;;5075579;28;46398;-68
2023/05/04 07:38:52;;;;;;;18.47;13.20;;;14.40;45.40;;;;;;5077638;28;46436;-69
2023/05/04 07:41:19;;;;;;;16.03;10.60;;;14.40;45.20;;;;;;5076975;28;46538;-68
2023/05/04 07:43:45;;;;;;;16.63;11.50;;;14.50;45.30;;;;;;5078192;27;46377;-68
2023/05/04 07:46:11;;;;;;;15.93;10.90;;;14.50;45.40;;;;;;5080689;28;46436;-68
2023/05/04 07:48:37;;;;;;;20.80;11.87;;;14.60;45.70;;;;;;5079268;28;46660;-68
2023/05/04 07:51:02;;;;;;;16.77;12.13;;;14.60;45.40;;;;;;5078312;28;46708;-67
2023/05/04 07:53:28;;;;;;;17.27;10.83;;;14.60;45.30;;;;;;5080228;28;46408;-67
2023/05/04 07:55:56;;;;;;;18.00;11.33;;;14.50;45.70;;;;;;5074918;28;46128;-67
2023/05/04 07:58:22;;;;;;;19.00;10.10;;;14.70;45.60;;;;;;5076968;28;46112;-64
2023/05/04 08:00:48;;;;;;;15.87;11.73;;;14.70;45.40;;;;;;5074267;28;46451;-66
2023/05/04 08:03:14;;;;;;;13.63;10.10;;;14.80;45.00;;;;;;5076384;28;46357;-66
2023/05/04 08:05:39;;;;;;;16.40;11.40;;;14.90;45.00;;;;;;5075173;28;46946;-66
2023/05/04 08:08:07;;;;;;;15.27;11.80;;;14.90;44.60;;;;;;5077403;28;45947;-66
2023/05/04 08:10:35;;;;;;;15.53;11.07;;;15.00;44.40;;;;;;5077234;28;46622;-65
2023/05/04 08:13:01;;;;;;;16.00;10.77;;;15.30;45.50;;;;;;5071584;28;46491;-65
2023/05/04 08:15:27;;;;;;;17.13;10.70;;;15.30;43.30;;;;;;5078706;28;47303;-64
2023/05/04 08:17:53;;;;;;;14.70;10.10;;;15.30;43.40;;;;;;5079883;28;46366;-65
2023/05/04 08:20:19;;;;;;;19.77;9.63;;;15.20;43.20;;;;;;5078688;28;46307;-64
2023/05/04 08:22:45;;;;;;;13.70;9.20;;;15.30;43.40;;;;;;5074808;28;46660;-65
2023/05/04 08:25:11;;;;;;;14.70;8.30;;;15.40;43.40;;;;;;5078648;28;46272;-65
2023/05/04 08:27:37;;;;;;;13.20;8.30;;;15.50;43.50;;;;;;5077289;28;46436;-65
2023/05/04 08:30:03;;;;;;;17.87;9.03;;;15.70;42.80;;;;;;5077474;28;46404;-67
2023/05/04 08:32:29;;;;;;;13.83;9.53;;;15.90;42.40;;;;;;5076131;28;46741;-66
2023/05/04 08:34:55;;;;;;;17.17;7.80;;;16.00;41.80;;;;;;5076104;28;45925;-65
2023/05/04 08:37:20;;;;;;;13.40;9.77;;;16.10;41.10;;;;;;5076274;28;46484;-65
2023/05/04 08:39:46;;;;;;;18.10;10.13;;;16.00;39.90;;;;;;5077863;28;46355;-65
2023/05/04 08:42:12;;;;;;;13.67;9.57;;;15.90;40.20;;;;;;5079762;28;46566;-65
2023/05/04 08:44:37;;;;;;;13.53;8.90;;;16.10;40.00;;;;;;5077497;28;46797;-65
2023/05/04 08:47:03;;;;;;;13.40;8.37;;;16.10;39.30;;;;;;5076965;28;46408;-66
2023/05/04 08:49:29;;;;;;;11.63;8.00;;;16.20;39.00;;;;;;5077076;28;45862;-65
2023/05/04 08:51:56;;;;;;;13.20;8.40;;;16.30;38.90;;;;;;5078461;28;46774;-65
2023/05/04 08:54:24;;;;;;;11.30;7.97;;;16.40;38.10;;;;;;5074246;27;47066;-64
2023/05/04 08:56:51;;;;;;;12.37;8.97;;;16.40;38.10;;;;;;5076469;28;46521;-65
2023/05/04 08:59:19;;;;;;;13.30;8.70;;;16.50;38.10;;;;;;5076095;28;46470;-66
2023/05/04 09:01:48;;;;;;;14.27;9.53;;;16.70;37.90;;;;;;5078771;28;45976;-66
2023/05/04 09:04:14;;;;;;;12.93;9.00;;;16.70;36.50;;;;;;5077295;28;46474;-67
2023/05/04 09:06:40;;;;;;;12.40;7.73;;;16.80;36.90;;;;;;5075062;28;46487;-65
2023/05/04 09:09:07;;;;;;;11.37;7.77;;;16.90;36.30;;;;;;5076919;28;46460;-66
2023/05/04 09:11:32;;;;;;;14.90;8.17;;;16.90;35.10;;;;;;5077439;28;45901;-64
2023/05/04 09:13:58;;;;;;;12.10;8.67;;;16.80;35.20;;;;;;5074817;28;46355;-65
2023/05/04 09:16:34;;;;;;;14.63;8.23;;;17.00;35.30;;;;;;5078951;28;46387;-65
2023/05/04 09:18:59;;;;;;;11.70;9.03;;;17.10;34.90;;;;;;5076819;28;46365;-64
2023/05/04 09:21:29;;;;;;;12.50;8.30;;;17.10;35.00;;;;;;5078435;28;46634;-64
2023/05/04 09:23:55;;;;;;;12.13;8.20;;;17.20;34.70;;;;;;5077676;28;48086;-65
2023/05/04 09:26:29;;;;;;;13.10;8.00;;;17.20;34.00;;;;;;5077313;28;46417;-67
2023/05/04 09:28:55;;;;;;;12.33;8.30;;;17.20;33.90;;;;;;5077815;28;45885;-67
2023/05/04 09:31:22;;;;;;;12.10;8.53;;;17.30;33.40;;;;;;5078368;28;46467;-65
2023/05/04 09:33:48;;;;;;;11.40;7.80;;;17.30;33.00;;;;;;5075700;28;46243;-68
2023/05/04 09:36:16;;;;;;;16.20;8.03;;;17.30;32.00;;;;;;5075345;28;45881;-68
2023/05/04 09:38:42;;;;;;;17.43;8.00;;;17.40;32.60;;;;;;5077108;28;46411;-66
2023/05/04 09:41:08;;;;;;;12.47;7.80;;;17.50;32.00;;;;;;5082241;28;46614;-66
2023/05/04 09:43:40;;;;;;;12.40;8.00;;;17.40;31.00;;;;;;5075464;28;46529;-66
2023/05/04 09:46:14;;;;;;;12.07;6.90;;;17.40;31.60;;;;;;5076717;28;46420;-66
2023/05/04 09:48:49;;;;;;;10.23;6.87;;;17.40;31.20;;;;;;5074554;28;46484;-65
2023/05/04 09:51:19;;;;;;;9.47;6.93;;;17.50;31.70;;;;;;5077366;28;46715;-64
2023/05/04 09:53:45;;;;;;;9.60;6.00;;;17.70;30.40;;;;;;5077612;28;46549;-66
2023/05/04 09:56:24;;;;;;;16.00;6.27;;;17.70;29.70;;;;;;5073398;28;46397;-66
2023/05/04 09:58:50;;;;;;;12.50;6.67;;;18.00;29.30;;;;;;5076130;28;46321;-66
2023/05/04 10:01:16;;;;;;;11.67;6.83;;;17.80;28.10;;;;;;5074689;28;46511;-65
2023/05/04 10:03:43;;;;;;;10.00;6.80;;;17.80;27.80;;;;;;5073986;28;46339;-64
2023/05/04 10:06:10;;;;;;;12.53;6.63;;;17.80;28.40;;;;;;5074855;28;46481;-64
2023/05/04 10:08:36;;;;;;;15.67;7.67;;;18.00;28.30;;;;;;5081382;28;46317;-65
2023/05/04 10:11:01;;;;;;;11.67;6.87;;;17.90;28.70;;;;;;5081867;28;46416;-64
2023/05/04 10:13:27;;;;;;;10.90;7.33;;;18.00;29.00;;;;;;5081220;28;47082;-65
2023/05/04 10:16:23;;;;;;;10.13;6.50;;;18.00;28.70;;;;;;5079753;28;46343;-65
2023/05/04 10:19:06;;;;;;;9.77;6.87;;;18.10;28.30;;;;;;5079716;28;46435;-65
2023/05/04 10:21:56;;;;;;;16.70;6.90;;;18.20;28.10;;;;;;5078266;28;46461;-66
2023/05/04 10:24:37;;;;;;;17.60;7.60;;;18.20;27.80;;;;;;5085971;28;46436;-65
2023/05/04 10:27:20;;;;;;;10.57;7.10;;;18.20;27.80;;;;;;5079296;28;46612;-65
2023/05/04 10:29:50;;;;;;;12.33;7.17;;;18.20;28.00;;;;;;5078994;28;46459;-65
2023/05/04 10:32:17;;;;;;;10.40;6.70;;;18.30;28.10;;;;;;5081084;28;46043;-66
2023/05/04 10:34:44;;;;;;;10.60;6.70;;;18.30;28.20;;;;;;5078642;28;46427;-66
2023/05/04 10:37:20;;;;;;;11.33;6.00;;;18.40;27.80;;;;;;5078971;28;46486;-66
2023/05/04 10:39:53;;;;;;;9.50;6.23;;;18.30;27.20;;;;;;5094305;27;46698;-66
2023/05/04 10:42:19;;;;;;;10.50;6.90;;;18.40;27.30;;;;;;5079508;28;46458;-64
2023/05/04 10:44:52;;;;;;;10.17;7.20;;;18.50;27.40;;;;;;5078594;28;47668;-65
2023/05/04 10:47:34;;;;;;;10.70;6.37;;;18.40;26.30;;;;;;5080329;28;46418;-66
2023/05/04 10:50:04;;;;;;;12.30;7.10;;;18.50;26.70;;;;;;5078031;28;47363;-64
2023/05/04 10:52:48;;;;;;;15.73;7.60;;;18.70;27.10;;;;;;5080105;28;46440;-66
2023/05/04 10:55:15;;;;;;;14.20;6.57;;;18.70;26.50;;;;;;5078873;28;46640;-66
2023/05/04 10:57:50;;;;;;;9.30;6.60;;;18.70;26.10;;;;;;5079333;28;46475;-66
2023/05/04 11:00:17;;;;;;;9.87;6.77;;;18.50;25.50;;;;;;5078347;28;46361;-66
2023/05/04 11:02:43;;;;;;;8.20;6.33;;;18.50;25.80;;;;;;5077933;28;46497;-66
2023/05/04 11:05:16;;;;;;;8.63;6.50;;;18.60;26.10;;;;;;5081097;28;46427;-65
2023/05/04 11:07:42;;;;;;;10.27;7.13;;;18.70;26.20;;;;;;5077529;28;46365;-66
2023/05/04 11:10:21;;;;;;;10.03;6.67;;;18.70;25.30;;;;;;5078288;28;46307;-67
2023/05/04 11:12:46;;;;;;;14.30;6.70;;;18.70;25.90;;;;;;5077808;28;46325;-66
2023/05/04 11:15:12;;;;;;;10.97;7.00;;;18.70;25.90;;;;;;5080585;28;46404;-67
2023/05/04 11:17:51;;;;;;;10.43;6.50;;;18.90;25.60;;;;;;5076670;28;46355;-67
2023/05/04 11:20:21;;;;;;;9.23;5.40;;;19.00;25.00;;;;;;5072128;28;46536;-67
2023/05/04 11:22:47;;;;;;;10.10;6.80;;;19.00;25.00;;;;;;5078374;28;46814;-67
2023/05/04 11:25:13;;;;;;;9.00;7.03;;;19.10;25.00;;;;;;5080385;28;46998;-66
2023/05/04 11:27:39;;;;;;;9.70;6.70;;;19.20;24.70;;;;;;5076864;28;46274;-68
2023/05/04 11:30:05;;;;;;;8.53;6.47;;;19.30;24.40;;;;;;5079182;28;46583;-67
2023/05/04 11:32:42;;;;;;;7.70;5.50;;;19.30;24.70;;;;;;5074530;28;46486;-69
2023/05/04 11:35:15;;;;;;;13.77;6.53;;;19.30;24.00;;;;;;5078334;28;46373;-68
2023/05/04 11:37:42;;;;;;;9.77;6.70;;;19.30;23.50;;;;;;5075262;28;45922;-68
2023/05/04 11:40:12;;;;;;;13.47;7.17;;;19.30;23.80;;;;;;5081165;28;46429;-65
2023/05/04 11:42:39;;;;;;;11.13;6.63;;;19.40;23.80;;;;;;5076797;28;46658;-66
2023/05/04 11:45:16;;;;;;;10.47;7.47;;;19.50;23.70;;;;;;5079484;28;46732;-67
2023/05/04 11:47:43;;;;;;;13.90;5.83;;;19.50;23.00;;;;;;5076998;28;46711;-65
2023/05/04 11:50:10;;;;;;;16.53;6.60;;;19.60;23.40;;;;;;5077686;28;45987;-65
2023/05/04 11:52:39;;;;;;;9.63;6.50;;;19.70;23.20;;;;;;5075444;28;45863;-66
2023/05/04 11:55:12;;;;;;;8.23;6.47;;;19.70;22.70;;;;;;5078182;28;46660;-66
2023/05/04 11:57:38;;;;;;;9.57;6.63;;;19.80;22.30;;;;;;5077584;28;46608;-66
2023/05/04 12:00:05;;;;;;;9.13;6.83;;;19.80;22.30;;;;;;5079469;28;46133;-64
2023/05/04 12:02:32;;;;;;;11.80;6.40;;;19.70;22.30;;;;;;5081051;28;46313;-66
2023/05/04 12:04:58;;;;;;;10.93;6.70;;;19.80;22.30;;;;;;5078497;28;47265;-64
2023/05/04 12:07:24;;;;;;;11.23;7.13;;;19.90;22.20;;;;;;5078892;28;45704;-64
2023/05/04 12:09:49;;;;;;;19.57;7.67;;;19.90;21.80;;;;;;5079615;28;46736;-64
2023/05/04 12:12:17;;;;;;;11.60;5.70;;;19.80;21.50;;;;;;5079194;28;46433;-65
2023/05/04 12:14:47;;;;;;;8.00;5.80;;;19.80;21.10;;;;;;5078019;28;46619;-64
2023/05/04 12:17:13;;;;;;;12.00;7.03;;;19.80;21.10;;;;;;5077765;28;46487;-64
2023/05/04 12:19:53;;;;;;;10.50;6.13;;;19.90;21.20;;;;;;5080017;28;46366;-66
2023/05/04 12:22:29;;;;;;;9.97;5.40;;;20.00;19.40;;;;;;5076260;28;46547;-66
2023/05/04 12:24:58;;;;;;;11.13;5.77;;;19.90;18.90;;;;;;5075323;28;47088;-65
2023/05/04 12:27:24;;;;;;;10.97;6.30;;;20.00;18.70;;;;;;5079281;28;46638;-66
2023/05/04 12:29:50;;;;;;;8.37;5.73;;;20.20;18.90;;;;;;5077559;27;46372;-67
2023/05/04 12:32:16;;;;;;;9.70;5.83;;;20.30;18.90;;;;;;5075950;28;45915;-66